createdAt,value
2023-05-07T00:00:47.099Z,101936.09
2023-05-07T00:03:15.030Z,101943.03
2023-05-07T00:05:42.555Z,101932.34
2023-05-07T00:08:09.071Z,101938.31
2023-05-07T00:10:35.541Z,101933.28
2023-05-07T00:13:02.183Z,101936.44
2023-05-07T00:15:28.699Z,101937.50
2023-05-07T00:17:55.213Z,101926.47
2023-05-07T00:20:21.660Z,101940.66
2023-05-07T00:22:48.130Z,101941.31
2023-05-07T00:25:14.554Z,101943.44
2023-05-07T00:27:41.045Z,101950.69
2023-05-07T00:30:09.117Z,101949.66
2023-05-07T00:32:35.940Z,101947.06
2023-05-07T00:35:02.419Z,101946.97
2023-05-07T00:37:28.866Z,101944.72
2023-05-07T00:39:57.045Z,101945.47
2023-05-07T00:42:23.599Z,101951.16
2023-05-07T00:44:50.062Z,101939.25
2023-05-07T00:47:16.776Z,101941.41
2023-05-07T00:49:44.564Z,101939.75
2023-05-07T00:52:14.244Z,101937.44
2023-05-07T00:54:42.283Z,101938.34
2023-05-07T00:57:10.602Z,101930.94
2023-05-07T00:59:37.136Z,101928.22
2023-05-07T01:02:03.788Z,101939.09
2023-05-07T01:04:31.424Z,101934.47
2023-05-07T01:07:00.238Z,101935.84
2023-05-07T01:09:27.709Z,101927.88
2023-05-07T01:11:54.555Z,101920.47
2023-05-07T01:14:21.889Z,101917.88
2023-05-07T01:16:50.114Z,101913.22
2023-05-07T01:19:19.249Z,101931.22
2023-05-07T01:21:49.844Z,101929.25
2023-05-07T01:24:16.926Z,101931.91
2023-05-07T01:26:46.728Z,101931.34
2023-05-07T01:29:13.884Z,101930.09
2023-05-07T01:31:41.905Z,101929.25
2023-05-07T01:34:09.925Z,101929.25
2023-05-07T01:36:39.247Z,101932.22
2023-05-07T01:39:07.964Z,101926.47
2023-05-07T01:41:34.910Z,101924.47
2023-05-07T01:44:01.554Z,101922.53
2023-05-07T01:46:28.945Z,101915.50
2023-05-07T01:48:55.516Z,101920.84
2023-05-07T01:51:23.427Z,101928.84
2023-05-07T01:53:52.171Z,101927.53
2023-05-07T01:56:22.523Z,101925.50
2023-05-07T01:58:49.188Z,101923.00
2023-05-07T02:01:15.797Z,101924.41
2023-05-07T02:03:42.571Z,101936.56
2023-05-07T02:06:09.565Z,101937.38
2023-05-07T02:08:36.445Z,101930.34
2023-05-07T02:11:03.187Z,101931.03
2023-05-07T02:13:31.063Z,101943.53
2023-05-07T02:15:57.971Z,101939.94
2023-05-07T02:18:24.504Z,101940.19
2023-05-07T02:20:51.769Z,101940.50
2023-05-07T02:23:18.358Z,101942.59
2023-05-07T02:25:44.886Z,101940.44
2023-05-07T02:28:11.368Z,101946.84
2023-05-07T02:30:38.954Z,101945.50
2023-05-07T02:33:05.704Z,101941.22
2023-05-07T02:35:32.191Z,101932.28
2023-05-07T02:37:58.610Z,101953.44
2023-05-07T02:40:25.464Z,101952.44
2023-05-07T02:42:51.933Z,101955.88
2023-05-07T02:45:19.294Z,101954.69
2023-05-07T02:47:45.811Z,101959.25
2023-05-07T02:50:12.486Z,101963.91
2023-05-07T02:52:39.160Z,101963.97
2023-05-07T02:55:06.159Z,101960.50
2023-05-07T02:57:32.623Z,101957.69
2023-05-07T02:59:59.575Z,101967.84
2023-05-07T03:02:25.999Z,101965.22
2023-05-07T03:04:52.841Z,101962.22
2023-05-07T03:07:19.394Z,101964.84
2023-05-07T03:09:46.357Z,101958.34
2023-05-07T03:12:12.792Z,101955.72
2023-05-07T03:14:39.283Z,101963.38
2023-05-07T03:17:06.039Z,101955.84
2023-05-07T03:19:32.497Z,101959.19
2023-05-07T03:21:58.995Z,101964.66
2023-05-07T03:24:25.538Z,101965.50
2023-05-07T03:26:52.000Z,101957.47
2023-05-07T03:29:18.714Z,101969.50
2023-05-07T03:31:45.253Z,101963.00
2023-05-07T03:34:11.760Z,101957.69
2023-05-07T03:36:38.187Z,101956.84
2023-05-07T03:39:04.881Z,101967.41
2023-05-07T03:41:31.360Z,101965.16
2023-05-07T03:43:57.818Z,101968.69
2023-05-07T03:46:27.147Z,101970.59
2023-05-07T03:48:53.715Z,101965.56
2023-05-07T03:51:20.183Z,101965.59
2023-05-07T03:53:46.607Z,101972.47
2023-05-07T03:56:13.094Z,101969.75
2023-05-07T03:58:39.548Z,101969.13
2023-05-07T04:01:06.011Z,101975.09
2023-05-07T04:03:32.617Z,101973.59
2023-05-07T04:05:59.157Z,101973.06
2023-05-07T04:08:25.577Z,101982.91
2023-05-07T04:10:58.786Z,101985.25
2023-05-07T04:13:25.819Z,101984.75
2023-05-07T04:15:56.096Z,101991.09
2023-05-07T04:18:22.764Z,101990.88
2023-05-07T04:20:50.948Z,101994.41
2023-05-07T04:23:17.481Z,102000.09
2023-05-07T04:25:44.014Z,101983.22
2023-05-07T04:28:10.482Z,102007.25
2023-05-07T04:30:36.943Z,101999.38
2023-05-07T04:33:03.572Z,102000.34
2023-05-07T04:35:30.045Z,101999.28
2023-05-07T04:37:56.494Z,102010.78
2023-05-07T04:40:23.180Z,102003.28
2023-05-07T04:42:49.616Z,102000.19
2023-05-07T04:45:16.363Z,102004.44
2023-05-07T04:47:42.898Z,102002.09
2023-05-07T04:50:09.989Z,102007.25
2023-05-07T04:52:36.733Z,102007.44
2023-05-07T04:55:03.513Z,102000.28
2023-05-07T04:57:29.949Z,102011.06
2023-05-07T04:59:56.416Z,102007.66
2023-05-07T05:02:22.861Z,102006.84
2023-05-07T05:04:49.395Z,102010.94
2023-05-07T05:07:15.828Z,102017.47
2023-05-07T05:09:42.354Z,102013.31
2023-05-07T05:12:10.318Z,102007.22
2023-05-07T05:14:37.051Z,102014.09
2023-05-07T05:17:03.510Z,102007.66
2023-05-07T05:19:29.966Z,102011.19
2023-05-07T05:21:56.516Z,102005.84
2023-05-07T05:24:22.999Z,102019.25
2023-05-07T05:26:49.466Z,102020.00
2023-05-07T05:29:15.933Z,102012.56
2023-05-07T05:31:42.833Z,102013.25
2023-05-07T05:34:09.354Z,102023.31
2023-05-07T05:36:35.838Z,102013.31
2023-05-07T05:39:02.381Z,102017.59
2023-05-07T05:41:28.861Z,102026.78
2023-05-07T05:43:55.316Z,102028.88
2023-05-07T05:46:21.871Z,102029.56
2023-05-07T05:48:48.311Z,102023.66
2023-05-07T05:51:14.816Z,102031.09
2023-05-07T05:53:41.276Z,102033.34
2023-05-07T05:56:07.976Z,102039.59
2023-05-07T05:58:34.407Z,102030.50
2023-05-07T06:01:01.076Z,102037.78
2023-05-07T06:03:27.543Z,102030.03
2023-05-07T06:05:54.021Z,102040.13
2023-05-07T06:08:20.822Z,102041.84
2023-05-07T06:10:47.369Z,102034.13
2023-05-07T06:13:13.928Z,102038.13
2023-05-07T06:15:40.475Z,102033.44
2023-05-07T06:18:07.039Z,102040.00
2023-05-07T06:20:33.605Z,102055.72
2023-05-07T06:23:00.037Z,102043.88
2023-05-07T06:25:26.494Z,102046.13
2023-05-07T06:27:52.914Z,102047.94
2023-05-07T06:30:19.516Z,102052.59
2023-05-07T06:32:45.990Z,102055.44
2023-05-07T06:35:12.468Z,102053.41
2023-05-07T06:37:40.573Z,102056.19
2023-05-07T06:40:08.366Z,102069.75
2023-05-07T06:42:35.152Z,102052.88
2023-05-07T06:45:02.039Z,102059.50
2023-05-07T06:47:28.515Z,102055.00
2023-05-07T06:49:55.049Z,102061.47
2023-05-07T06:52:21.524Z,102041.22
2023-05-07T06:54:48.040Z,102046.56
2023-05-07T06:57:14.507Z,102050.53
2023-05-07T06:59:41.122Z,102051.16
2023-05-07T07:02:07.634Z,102045.16
2023-05-07T07:04:34.130Z,102050.38
2023-05-07T07:07:00.624Z,102046.88
2023-05-07T07:09:27.090Z,102045.47
2023-05-07T07:11:53.568Z,102053.38
2023-05-07T07:14:20.090Z,102049.91
2023-05-07T07:16:47.860Z,102049.16
2023-05-07T07:19:16.187Z,102045.25
2023-05-07T07:21:43.188Z,102031.47
2023-05-07T07:24:09.651Z,102038.06
2023-05-07T07:26:36.244Z,102037.50
2023-05-07T07:29:02.728Z,102045.34
2023-05-07T07:31:29.313Z,102042.78
2023-05-07T07:33:55.897Z,102052.69
2023-05-07T07:36:23.810Z,102044.41
2023-05-07T07:38:54.839Z,102038.69
2023-05-07T07:41:21.369Z,102047.84
2023-05-07T07:43:49.159Z,102045.28
2023-05-07T07:46:16.678Z,102044.25
2023-05-07T07:48:43.143Z,102057.41
2023-05-07T07:51:09.633Z,102051.56
2023-05-07T07:53:36.087Z,102057.75
2023-05-07T07:56:04.976Z,102057.28
2023-05-07T07:58:32.664Z,102046.44
2023-05-07T08:00:59.243Z,102055.81
2023-05-07T08:03:25.826Z,102054.63
2023-05-07T08:05:52.332Z,102051.97
2023-05-07T08:08:18.791Z,102055.53
2023-05-07T08:10:45.617Z,102054.50
2023-05-07T08:13:12.145Z,102056.88
2023-05-07T08:15:38.660Z,102058.84
2023-05-07T08:18:05.340Z,102052.09
2023-05-07T08:20:32.050Z,102051.03
2023-05-07T08:22:58.589Z,102048.91
2023-05-07T08:25:25.187Z,102053.69
2023-05-07T08:27:51.665Z,102054.84
2023-05-07T08:30:18.146Z,102046.91
2023-05-07T08:32:44.675Z,102048.38
2023-05-07T08:35:11.360Z,102046.69
2023-05-07T08:37:37.919Z,102052.03
2023-05-07T08:40:06.573Z,102053.22
2023-05-07T08:42:38.518Z,102051.13
2023-05-07T08:45:09.340Z,102057.53
2023-05-07T08:47:48.785Z,102057.94
2023-05-07T08:50:15.581Z,102056.66
2023-05-07T08:52:42.189Z,102064.84
2023-05-07T08:55:10.289Z,102078.88
2023-05-07T08:57:37.104Z,102083.47
2023-05-07T09:00:08.275Z,102080.06
2023-05-07T09:02:49.117Z,102082.88
2023-05-07T09:05:15.658Z,102081.88
2023-05-07T09:07:42.165Z,102097.56
2023-05-07T09:10:09.192Z,102092.97
2023-05-07T09:12:37.242Z,102089.66
2023-05-07T09:15:04.151Z,102081.66
2023-05-07T09:17:30.708Z,102086.28
2023-05-07T09:19:57.779Z,102084.09
2023-05-07T09:22:24.336Z,102086.53
2023-05-07T09:24:51.768Z,102084.56
2023-05-07T09:27:19.003Z,102080.91
2023-05-07T09:29:45.892Z,102084.84
2023-05-07T09:32:12.407Z,102074.66
2023-05-07T09:34:38.933Z,102075.84
2023-05-07T09:37:06.797Z,102068.41
2023-05-07T09:39:40.922Z,102074.97
2023-05-07T09:42:07.656Z,102075.28
2023-05-07T09:44:35.442Z,102076.72
2023-05-07T09:47:03.005Z,102077.34
2023-05-07T09:49:33.382Z,102079.63
2023-05-07T09:52:01.585Z,102079.66
2023-05-07T09:54:31.712Z,102070.56
2023-05-07T09:56:59.410Z,102071.88
2023-05-07T09:59:29.871Z,102072.59
2023-05-07T10:01:59.283Z,102081.16
2023-05-07T10:04:28.890Z,102083.88
2023-05-07T10:06:56.620Z,102073.69
2023-05-07T10:09:23.885Z,102081.44
2023-05-07T10:11:51.078Z,102078.63
2023-05-07T10:14:18.394Z,102080.09
2023-05-07T10:16:45.804Z,102073.03
2023-05-07T10:19:12.887Z,102090.00
2023-05-07T10:21:43.007Z,102078.13
2023-05-07T10:24:26.835Z,102079.75
2023-05-07T10:26:58.107Z,102083.91
2023-05-07T10:29:35.864Z,102078.69
2023-05-07T10:32:12.748Z,102076.13
2023-05-07T10:34:43.276Z,102079.03
2023-05-07T10:37:10.987Z,102080.00
2023-05-07T10:39:37.947Z,102083.13
2023-05-07T10:42:11.898Z,102073.28
2023-05-07T10:44:38.739Z,102069.91
2023-05-07T10:47:17.466Z,102071.72
2023-05-07T10:49:43.847Z,102071.00
2023-05-07T10:52:18.549Z,102074.28
2023-05-07T10:54:46.226Z,102065.88
2023-05-07T10:57:37.512Z,102058.47
2023-05-07T11:00:04.924Z,102065.31
2023-05-07T11:03:06.810Z,102061.56
2023-05-07T11:05:37.297Z,102056.72
2023-05-07T11:08:05.836Z,102057.78
2023-05-07T11:10:53.063Z,102059.34
2023-05-07T11:13:40.835Z,102056.94
2023-05-07T11:16:18.238Z,102063.63
2023-05-07T11:18:50.924Z,102054.75
2023-05-07T11:21:42.633Z,102048.03
2023-05-07T11:24:10.284Z,102049.25
2023-05-07T11:26:44.581Z,102048.13
2023-05-07T11:29:20.832Z,102059.97
2023-05-07T11:31:53.157Z,102046.03
2023-05-07T11:34:24.651Z,102043.25
2023-05-07T11:36:51.517Z,102040.97
2023-05-07T11:39:34.449Z,102040.47
2023-05-07T11:42:01.470Z,102033.50
2023-05-07T11:44:42.455Z,102035.13
2023-05-07T11:47:09.161Z,102034.44
2023-05-07T11:49:35.674Z,102038.16
2023-05-07T11:52:02.137Z,102033.81
2023-05-07T11:54:36.356Z,102035.25
2023-05-07T11:57:03.073Z,102037.22
2023-05-07T11:59:29.547Z,102041.22
2023-05-07T12:02:00.322Z,102033.44
2023-05-07T12:04:27.055Z,102029.53
2023-05-07T12:06:56.846Z,102033.50
2023-05-07T12:09:23.383Z,102023.97
2023-05-07T12:11:49.944Z,102024.00
2023-05-07T12:14:19.265Z,102017.66
2023-05-07T12:16:46.415Z,102020.63
2023-05-07T12:19:16.167Z,102023.56
2023-05-07T12:21:42.795Z,102024.59
2023-05-07T12:24:09.296Z,102021.63
2023-05-07T12:26:39.247Z,102022.97
2023-05-07T12:29:05.868Z,102023.63
2023-05-07T12:31:32.432Z,102015.97
2023-05-07T12:33:58.944Z,102016.66
2023-05-07T12:36:26.924Z,102010.75
2023-05-07T12:38:55.635Z,102016.63
2023-05-07T12:41:26.838Z,102026.59
2023-05-07T12:43:57.642Z,102038.00
2023-05-07T12:46:24.701Z,102031.06
2023-05-07T12:48:51.303Z,102026.66
2023-05-07T12:51:17.822Z,102025.81
2023-05-07T12:53:44.489Z,102029.31
2023-05-07T12:56:11.031Z,102026.53
2023-05-07T12:58:37.585Z,102030.13
2023-05-07T13:01:08.462Z,102022.22
2023-05-07T13:03:36.243Z,102028.44
2023-05-07T13:06:11.456Z,102029.31
2023-05-07T13:08:41.676Z,102023.53
2023-05-07T13:11:10.018Z,102028.06
2023-05-07T13:13:38.401Z,102019.81
2023-05-07T13:16:06.380Z,102019.38
2023-05-07T13:18:33.688Z,102022.81
2023-05-07T13:21:01.895Z,102014.31
2023-05-07T13:23:28.785Z,102014.44
2023-05-07T13:25:56.742Z,102011.16
2023-05-07T13:28:24.233Z,102007.91
2023-05-07T13:30:52.792Z,102011.84
2023-05-07T13:33:19.444Z,102020.41
2023-05-07T13:35:45.983Z,102017.66
2023-05-07T13:38:12.436Z,102012.44
2023-05-07T13:40:38.913Z,102000.13
2023-05-07T13:43:07.138Z,102010.69
2023-05-07T13:45:34.135Z,102011.44
2023-05-07T13:48:01.976Z,102011.97
2023-05-07T13:50:30.191Z,102012.25
2023-05-07T13:52:56.907Z,102012.50
2023-05-07T13:55:24.760Z,102023.16
2023-05-07T13:57:59.562Z,102013.47
2023-05-07T14:00:27.460Z,102030.16
2023-05-07T14:02:54.379Z,102023.16
2023-05-07T14:05:21.025Z,102012.56
2023-05-07T14:07:48.742Z,102014.38
2023-05-07T14:10:15.557Z,102018.69
2023-05-07T14:12:42.404Z,102010.81
2023-05-07T14:15:09.314Z,102004.66
2023-05-07T14:17:35.895Z,102013.50
2023-05-07T14:20:02.509Z,102014.41
2023-05-07T14:22:29.060Z,102018.72
2023-05-07T14:25:05.972Z,101997.53
2023-05-07T14:27:33.600Z,102008.03
2023-05-07T14:30:00.772Z,102012.63
2023-05-07T14:32:28.138Z,102008.13
2023-05-07T14:34:54.673Z,102003.78
2023-05-07T14:37:22.296Z,102000.22
2023-05-07T14:39:50.530Z,102006.47
2023-05-07T14:42:17.829Z,102001.09
2023-05-07T14:44:45.781Z,102002.88
2023-05-07T14:47:12.242Z,102005.53
2023-05-07T14:49:39.042Z,102003.75
2023-05-07T14:52:07.157Z,102007.25
2023-05-07T14:54:38.916Z,102008.97
2023-05-07T14:57:06.833Z,102008.97
2023-05-07T14:59:33.375Z,102015.13
2023-05-07T15:01:59.878Z,102006.41
2023-05-07T15:04:26.462Z,102014.13
2023-05-07T15:06:54.758Z,102009.78
2023-05-07T15:09:21.271Z,102009.81
2023-05-07T15:11:47.700Z,102009.84
2023-05-07T15:14:14.302Z,102011.69
2023-05-07T15:16:40.904Z,102009.91
2023-05-07T15:19:07.536Z,102010.72
2023-05-07T15:21:35.753Z,102011.69
2023-05-07T15:24:02.934Z,102018.38
2023-05-07T15:26:30.244Z,102016.84
2023-05-07T15:28:59.617Z,102014.91
2023-05-07T15:31:26.398Z,102020.22
2023-05-07T15:33:53.261Z,102021.44
2023-05-07T15:36:21.212Z,102014.31
2023-05-07T15:38:47.695Z,102020.47
2023-05-07T15:41:14.171Z,102008.22
2023-05-07T15:43:49.802Z,102013.47
2023-05-07T15:46:21.058Z,102006.47
2023-05-07T15:48:47.731Z,102016.13
2023-05-07T15:51:14.319Z,102018.78
2023-05-07T15:53:41.211Z,102014.34
2023-05-07T15:56:07.810Z,102009.94
2023-05-07T15:58:35.845Z,102012.63
2023-05-07T16:01:02.530Z,102014.25
2023-05-07T16:03:32.035Z,102009.94
2023-05-07T16:06:00.837Z,102015.28
2023-05-07T16:08:27.659Z,102010.81
2023-05-07T16:10:54.425Z,102011.72
2023-05-07T16:13:21.954Z,102016.97
2023-05-07T16:15:48.603Z,102020.53
2023-05-07T16:18:17.986Z,102011.69
2023-05-07T16:20:44.481Z,102011.69
2023-05-07T16:23:13.033Z,102007.34
2023-05-07T16:25:39.579Z,102011.72
2023-05-07T16:28:06.787Z,102012.63
2023-05-07T16:30:33.898Z,102010.78
2023-05-07T16:33:02.979Z,102005.50
2023-05-07T16:35:29.534Z,102013.28
2023-05-07T16:37:56.066Z,102010.50
2023-05-07T16:40:22.893Z,102008.09
2023-05-07T16:42:49.376Z,102009.66
2023-05-07T16:45:16.513Z,102004.50
2023-05-07T16:47:43.137Z,102008.03
2023-05-07T16:50:10.042Z,102010.63
2023-05-07T16:52:36.545Z,102009.03
2023-05-07T16:55:03.138Z,102009.88
2023-05-07T16:57:30.736Z,102014.16
2023-05-07T16:59:57.484Z,102018.72
2023-05-07T17:02:24.242Z,102012.41
2023-05-07T17:04:50.816Z,102014.25
2023-05-07T17:07:17.544Z,102010.75
2023-05-07T17:09:44.084Z,102016.03
2023-05-07T17:12:10.647Z,102015.22
2023-05-07T17:14:37.452Z,102008.13
2023-05-07T17:17:04.096Z,102011.59
2023-05-07T17:19:30.570Z,102008.19
2023-05-07T17:21:57.599Z,102020.44
2023-05-07T17:24:24.043Z,102010.72
2023-05-07T17:26:51.022Z,102016.03
2023-05-07T17:29:19.217Z,102015.22
2023-05-07T17:31:46.516Z,102029.25
2023-05-07T17:34:15.877Z,102020.41
2023-05-07T17:36:44.139Z,102018.69
2023-05-07T17:39:10.653Z,102024.84
2023-05-07T17:41:37.387Z,102028.09
2023-05-07T17:44:04.000Z,102025.50
2023-05-07T17:46:30.778Z,102030.91
2023-05-07T17:48:57.943Z,102035.22
2023-05-07T17:51:25.971Z,102030.84
2023-05-07T17:53:52.443Z,102034.34
2023-05-07T17:56:18.902Z,102036.13
2023-05-07T17:58:58.875Z,102034.16
2023-05-07T18:01:26.295Z,102035.19
2023-05-07T18:03:52.916Z,102036.91
2023-05-07T18:06:20.817Z,102036.81
2023-05-07T18:08:47.738Z,102033.31
2023-05-07T18:11:14.518Z,102038.41
2023-05-07T18:13:41.039Z,102040.19
2023-05-07T18:16:07.699Z,102034.09
2023-05-07T18:18:35.441Z,102042.97
2023-05-07T18:21:03.436Z,102043.91
2023-05-07T18:23:30.957Z,102041.03
2023-05-07T18:25:58.501Z,102045.41
2023-05-07T18:28:28.599Z,102045.44
2023-05-07T18:30:55.194Z,102050.41
2023-05-07T18:33:22.863Z,102054.72
2023-05-07T18:35:49.318Z,102057.47
2023-05-07T18:38:16.468Z,102060.91
2023-05-07T18:40:44.154Z,102057.53
2023-05-07T18:43:11.325Z,102063.41
2023-05-07T18:45:40.796Z,102066.72
2023-05-07T18:48:07.616Z,102070.28
2023-05-07T18:50:34.285Z,102070.06
2023-05-07T18:53:00.883Z,102069.88
2023-05-07T18:55:27.408Z,102076.34
2023-05-07T18:57:53.895Z,102077.88
2023-05-07T19:00:20.499Z,102068.88
2023-05-07T19:02:46.992Z,102076.94
2023-05-07T19:05:13.550Z,102080.78
2023-05-07T19:07:40.081Z,102087.84
2023-05-07T19:10:07.099Z,102082.47
2023-05-07T19:12:33.581Z,102091.63
2023-05-07T19:15:00.162Z,102091.97
2023-05-07T19:17:26.684Z,102101.09
2023-05-07T19:19:53.162Z,102102.47
2023-05-07T19:22:19.712Z,102115.06
2023-05-07T19:24:46.173Z,102115.72
2023-05-07T19:27:12.654Z,102119.09
2023-05-07T19:29:40.109Z,102124.75
2023-05-07T19:32:06.662Z,102124.88
2023-05-07T19:34:33.274Z,102131.19
2023-05-07T19:36:59.732Z,102136.56
2023-05-07T19:39:27.166Z,102143.53
2023-05-07T19:41:53.717Z,102138.28
2023-05-07T19:44:20.283Z,102141.72
2023-05-07T19:46:47.800Z,102134.75
2023-05-07T19:49:14.320Z,102143.63
2023-05-07T19:51:40.925Z,102145.53
2023-05-07T19:54:07.376Z,102148.38
2023-05-07T19:56:33.842Z,102151.47
2023-05-07T19:59:00.413Z,102143.16
2023-05-07T20:01:28.868Z,102152.13
2023-05-07T20:03:55.835Z,102149.25
2023-05-07T20:06:23.432Z,102156.41
2023-05-07T20:08:50.290Z,102159.91
2023-05-07T20:11:16.778Z,102156.56
2023-05-07T20:13:43.265Z,102160.44
2023-05-07T20:16:09.864Z,102169.63
2023-05-07T20:18:36.516Z,102172.59
2023-05-07T20:21:04.522Z,102172.56
2023-05-07T20:23:31.177Z,102176.78
2023-05-07T20:25:58.389Z,102181.59
2023-05-07T20:28:25.543Z,102191.75
2023-05-07T20:30:52.002Z,102183.56
2023-05-07T20:33:18.544Z,102184.81
2023-05-07T20:35:45.294Z,102190.13
2023-05-07T20:38:11.922Z,102195.25
2023-05-07T20:40:38.647Z,102195.72
2023-05-07T20:43:06.617Z,102187.78
2023-05-07T20:45:33.379Z,102195.44
2023-05-07T20:48:00.942Z,102197.22
2023-05-07T20:50:27.943Z,102203.00
2023-05-07T20:52:54.425Z,102196.03
2023-05-07T20:55:20.908Z,102201.00
2023-05-07T20:57:47.415Z,102205.16
2023-05-07T21:00:15.851Z,102202.09
2023-05-07T21:02:42.623Z,102204.75
2023-05-07T21:05:09.462Z,102204.50
2023-05-07T21:07:35.962Z,102203.81
2023-05-07T21:10:03.322Z,102200.91
2023-05-07T21:12:29.848Z,102203.50
2023-05-07T21:14:56.730Z,102208.19
2023-05-07T21:17:23.303Z,102203.25
2023-05-07T21:19:50.180Z,102211.31
2023-05-07T21:22:16.834Z,102210.19
2023-05-07T21:24:44.073Z,102207.22
2023-05-07T21:27:10.836Z,102212.84
2023-05-07T21:29:38.603Z,102208.22
2023-05-07T21:32:05.611Z,102201.94
2023-05-07T21:34:32.164Z,102206.91
2023-05-07T21:36:58.755Z,102208.22
2023-05-07T21:39:25.514Z,102204.59
2023-05-07T21:41:51.951Z,102214.25
2023-05-07T21:44:18.428Z,102218.25
2023-05-07T21:46:45.201Z,102218.44
2023-05-07T21:49:11.992Z,102216.47
2023-05-07T21:51:38.613Z,102222.25
2023-05-07T21:54:05.366Z,102228.63
2023-05-07T21:56:31.870Z,102222.06
2023-05-07T21:58:58.438Z,102220.47
2023-05-07T22:01:25.132Z,102223.41
2023-05-07T22:03:52.027Z,102229.22
2023-05-07T22:06:22.646Z,102230.31
2023-05-07T22:08:49.723Z,102233.22
2023-05-07T22:11:16.228Z,102230.09
2023-05-07T22:13:43.796Z,102233.56
2023-05-07T22:16:10.366Z,102226.47
2023-05-07T22:18:36.843Z,102240.34
2023-05-07T22:21:03.364Z,102234.22
2023-05-07T22:23:29.884Z,102242.63
2023-05-07T22:25:56.364Z,102240.13
2023-05-07T22:28:22.808Z,102243.31
2023-05-07T22:30:50.441Z,102240.81
2023-05-07T22:33:16.968Z,102246.38
2023-05-07T22:35:43.463Z,102247.66
2023-05-07T22:38:09.937Z,102245.16
2023-05-07T22:40:36.408Z,102245.06
2023-05-07T22:43:02.865Z,102250.63
2023-05-07T22:45:29.374Z,102258.44
2023-05-07T22:47:55.824Z,102262.63
2023-05-07T22:50:22.571Z,102253.97
2023-05-07T22:52:49.145Z,102259.97
2023-05-07T22:55:15.758Z,102267.03
2023-05-07T22:57:42.246Z,102264.91
2023-05-07T23:00:10.022Z,102271.50
2023-05-07T23:02:36.936Z,102272.28
2023-05-07T23:05:03.804Z,102272.41
2023-05-07T23:07:30.495Z,102277.03
2023-05-07T23:09:57.072Z,102280.34
2023-05-07T23:12:23.573Z,102274.63
2023-05-07T23:14:50.153Z,102267.84
2023-05-07T23:17:17.062Z,102278.97
2023-05-07T23:19:43.622Z,102273.63
2023-05-07T23:22:10.456Z,102267.38
2023-05-07T23:24:37.027Z,102271.47
2023-05-07T23:27:07.291Z,102273.88
2023-05-07T23:29:34.285Z,102273.88
2023-05-07T23:32:01.870Z,102276.78
2023-05-07T23:34:28.343Z,102276.00
2023-05-07T23:36:54.913Z,102277.44
2023-05-07T23:39:21.385Z,102274.91
2023-05-07T23:41:47.988Z,102276.88
2023-05-07T23:44:16.651Z,102274.31
2023-05-07T23:46:44.473Z,102282.94
2023-05-07T23:49:11.179Z,102275.25
2023-05-07T23:51:37.961Z,102274.09
2023-05-07T23:54:04.776Z,102285.75
2023-05-07T23:56:31.579Z,102288.50
2023-05-07T23:58:58.107Z,102285.81
